Pisgah, Missouri
Current Conditions -  °F | °C
As of 6:15 AM on Thursday 29 Jan 2015 (Local Time) from KVER Reporting Station
Overcast Overcast  
Wind Chill: 33°   Ceiling: 2100
Heat Index: 41°   Visibility: 10mi
Dew Point: 32°   Wind: 17mph
Humidity: 70%   Direction: 320°NW
Pressure: 30.07"   Gusts: 25mph
Location:  38.7427°N, 92.7977°W
Report Text: KVER 291215Z AUTO 32015G22KT 10SM OVC021 05/00 A3007 RMK AO2 T00510000
Loading
Personal Weather Stations






























Interactive Weather Map New forecast layout! Learn more

10-Day Weather Forecast

Advertisements
Track Severe Weather on mobile